createdAt,value
2018-05-21T00:02:19.552Z,13.80
2018-05-21T00:04:47.888Z,13.80
2018-05-21T00:07:16.176Z,13.80
2018-05-21T00:09:44.483Z,13.80
2018-05-21T00:12:12.776Z,13.80
2018-05-21T00:14:41.873Z,13.80
2018-05-21T00:17:10.152Z,13.80
2018-05-21T00:19:38.472Z,13.90
2018-05-21T00:22:06.773Z,13.90
2018-05-21T00:24:35.095Z,14.00
2018-05-21T00:27:03.387Z,14.00
2018-05-21T00:29:31.816Z,14.20
2018-05-21T00:32:00.112Z,14.30
2018-05-21T00:34:28.528Z,14.40
2018-05-21T00:36:56.826Z,14.50
2018-05-21T00:39:25.311Z,14.50
2018-05-21T00:41:54.371Z,14.70
2018-05-21T00:44:23.595Z,14.70
2018-05-21T00:46:52.024Z,14.70
2018-05-21T00:49:20.303Z,14.80
2018-05-21T00:51:48.708Z,14.80
2018-05-21T00:54:17.765Z,14.80
2018-05-21T00:56:46.193Z,14.80
2018-05-21T00:59:14.484Z,14.80
2018-05-21T01:01:42.940Z,14.80
2018-05-21T01:04:11.984Z,14.80
2018-05-21T01:06:40.412Z,14.80
2018-05-21T01:09:09.456Z,14.70
2018-05-21T01:11:37.839Z,14.70
2018-05-21T01:14:06.900Z,14.70
2018-05-21T01:16:35.256Z,14.70
2018-05-21T01:19:03.532Z,14.70
2018-05-21T01:21:31.881Z,14.70
2018-05-21T01:24:00.182Z,14.70
2018-05-21T01:26:28.544Z,14.70
2018-05-21T01:28:56.823Z,14.70
2018-05-21T01:31:25.169Z,14.70
2018-05-21T01:33:53.444Z,14.70
2018-05-21T01:36:23.466Z,14.70
2018-05-21T01:38:51.793Z,14.70
2018-05-21T01:41:20.991Z,14.70
2018-05-21T01:43:50.063Z,14.60
2018-05-21T01:46:18.449Z,14.60
2018-05-21T01:48:46.796Z,14.60
2018-05-21T01:51:15.232Z,14.60
2018-05-21T01:53:44.321Z,14.60
2018-05-21T01:56:12.702Z,14.60
2018-05-21T01:58:41.812Z,14.50
2018-05-21T02:01:10.225Z,14.40
2018-05-21T02:03:38.500Z,14.50
2018-05-21T02:06:06.815Z,14.40
2018-05-21T02:08:35.118Z,14.40
2018-05-21T02:11:03.458Z,14.30
2018-05-21T02:13:31.749Z,14.30
2018-05-21T02:16:00.081Z,14.20
2018-05-21T02:18:28.377Z,14.20
2018-05-21T02:20:57.430Z,14.00
2018-05-21T02:23:25.747Z,14.00
2018-05-21T02:25:54.046Z,14.00
2018-05-21T02:28:22.356Z,14.00
2018-05-21T02:30:51.414Z,13.90
2018-05-21T02:33:19.746Z,13.90
2018-05-21T02:35:48.036Z,13.90
2018-05-21T02:38:16.345Z,13.90
2018-05-21T02:40:44.631Z,13.90
2018-05-21T02:43:12.937Z,13.90
2018-05-21T02:45:41.999Z,13.90
2018-05-21T02:48:10.308Z,13.80
2018-05-21T02:50:39.355Z,13.80
2018-05-21T02:53:07.689Z,13.80
2018-05-21T02:55:35.967Z,13.80
2018-05-21T02:58:04.288Z,13.70
2018-05-21T03:00:32.577Z,13.70
2018-05-21T03:03:00.889Z,13.70
2018-05-21T03:05:29.176Z,13.60
2018-05-21T03:07:57.486Z,13.60
2018-05-21T03:10:25.777Z,13.60
2018-05-21T03:12:54.101Z,13.60
2018-05-21T03:15:22.409Z,13.50
2018-05-21T03:17:50.729Z,13.50
2018-05-21T03:20:19.018Z,13.40
2018-05-21T03:22:47.359Z,13.40
2018-05-21T03:25:15.640Z,13.40
2018-05-21T03:27:43.963Z,13.40
2018-05-21T03:30:13.016Z,13.40
2018-05-21T03:32:41.331Z,13.40
2018-05-21T03:35:09.668Z,13.40
2018-05-21T03:37:37.988Z,13.30
2018-05-21T03:40:07.037Z,13.30
2018-05-21T03:42:35.355Z,13.30
2018-05-21T03:45:04.408Z,13.30
2018-05-21T03:47:33.491Z,13.30
2018-05-21T03:50:01.783Z,13.20
2018-05-21T03:52:30.097Z,13.20
2018-05-21T03:54:58.399Z,13.30
2018-05-21T03:57:26.716Z,13.30
2018-05-21T04:00:06.941Z,13.20
2018-05-21T04:02:46.988Z,13.30
2018-05-21T04:05:15.272Z,13.30
2018-05-21T04:07:43.590Z,13.30
2018-05-21T04:10:11.866Z,13.20
2018-05-21T04:12:40.197Z,13.10
2018-05-21T04:15:08.475Z,13.10
2018-05-21T04:17:36.795Z,13.10
2018-05-21T04:20:05.080Z,13.10
2018-05-21T04:22:33.395Z,13.00
2018-05-21T04:25:02.468Z,13.10
2018-05-21T04:27:30.753Z,13.00
2018-05-21T04:29:59.836Z,13.10
2018-05-21T04:32:28.152Z,13.10
2018-05-21T04:34:56.477Z,13.10
2018-05-21T04:37:24.764Z,13.10
2018-05-21T04:39:53.109Z,13.20
2018-05-21T04:42:21.392Z,13.20
2018-05-21T04:44:49.699Z,13.20
2018-05-21T04:47:17.991Z,13.30
2018-05-21T04:49:47.091Z,13.30
2018-05-21T04:52:16.168Z,13.30
2018-05-21T04:54:44.507Z,13.30
2018-05-21T04:57:12.801Z,13.20
2018-05-21T04:59:41.119Z,13.20
2018-05-21T05:02:10.230Z,13.10
2018-05-21T05:04:38.532Z,13.10
2018-05-21T05:07:06.812Z,13.10
2018-05-21T05:09:35.139Z,13.00
2018-05-21T05:12:03.439Z,13.00
2018-05-21T05:14:31.758Z,13.00
2018-05-21T05:17:00.039Z,13.10
2018-05-21T05:19:28.352Z,13.10
2018-05-21T05:21:57.408Z,13.30
2018-05-21T05:24:25.744Z,13.20
2018-05-21T05:26:54.039Z,13.20
2018-05-21T05:29:22.349Z,13.30
2018-05-21T05:31:50.633Z,13.40
2018-05-21T05:34:18.940Z,13.40
2018-05-21T05:36:47.993Z,13.40
2018-05-21T05:39:16.300Z,13.30
2018-05-21T05:41:44.605Z,13.40
2018-05-21T05:44:12.937Z,13.40
2018-05-21T05:46:41.237Z,13.50
2018-05-21T05:49:10.333Z,13.60
2018-05-21T05:51:39.391Z,13.70
2018-05-21T05:54:07.691Z,13.70
2018-05-21T05:56:35.981Z,13.80
2018-05-21T05:59:04.300Z,13.80
2018-05-21T06:01:32.580Z,13.80
2018-05-21T06:04:00.896Z,13.80
2018-05-21T06:06:29.172Z,13.90
2018-05-21T06:08:57.486Z,13.90
2018-05-21T06:11:26.552Z,14.10
2018-05-21T06:13:54.880Z,14.00
2018-05-21T06:16:23.160Z,14.10
2018-05-21T06:18:51.440Z,14.20
2018-05-21T06:21:19.749Z,14.20
2018-05-21T06:23:48.049Z,14.30
2018-05-21T06:26:16.392Z,14.40
2018-05-21T06:28:44.708Z,14.40
2018-05-21T06:31:13.784Z,14.60
2018-05-21T06:33:42.077Z,14.60
2018-05-21T06:36:10.406Z,14.60
2018-05-21T06:38:38.687Z,14.70
2018-05-21T06:41:07.088Z,14.80
2018-05-21T06:43:35.321Z,14.90
2018-05-21T06:46:03.628Z,15.00
2018-05-21T06:48:31.919Z,15.10
2018-05-21T06:51:00.254Z,15.10
2018-05-21T06:53:28.532Z,15.20
2018-05-21T06:55:56.845Z,15.40
2018-05-21T06:58:25.143Z,15.40
2018-05-21T07:00:53.447Z,15.50
2018-05-21T07:03:21.754Z,15.60
2018-05-21T07:05:50.070Z,15.70
2018-05-21T07:08:19.134Z,15.80
2018-05-21T07:10:47.470Z,15.80
2018-05-21T07:13:16.552Z,16.00
2018-05-21T07:15:45.627Z,16.10
2018-05-21T07:18:13.976Z,16.00
2018-05-21T07:20:42.248Z,16.10
2018-05-21T07:23:10.532Z,16.20
2018-05-21T07:25:38.859Z,16.30
2018-05-21T07:28:07.904Z,16.50
2018-05-21T07:30:36.220Z,16.50
2018-05-21T07:33:04.506Z,16.60
2018-05-21T07:35:32.832Z,16.70
2018-05-21T07:38:01.116Z,16.70
2018-05-21T07:40:29.433Z,16.80
2018-05-21T07:42:57.723Z,16.90
2018-05-21T07:45:26.040Z,16.90
2018-05-21T07:47:55.104Z,17.10
2018-05-21T07:50:23.434Z,17.10
2018-05-21T07:52:51.724Z,17.20
2018-05-21T07:55:20.049Z,17.40
2018-05-21T07:57:48.364Z,17.40
2018-05-21T08:00:16.652Z,17.50
2018-05-21T08:02:44.975Z,17.50
2018-05-21T08:05:13.255Z,17.60
2018-05-21T08:07:41.570Z,17.70
2018-05-21T08:10:09.855Z,17.70
2018-05-21T08:12:38.196Z,17.90
2018-05-21T08:15:06.502Z,17.90
2018-05-21T08:17:34.843Z,18.00
2018-05-21T08:20:03.124Z,18.10
2018-05-21T08:22:31.441Z,18.20
2018-05-21T08:24:59.730Z,18.20
2018-05-21T08:27:28.040Z,18.20
2018-05-21T08:29:57.113Z,18.10
2018-05-21T08:32:25.444Z,18.10
2018-05-21T08:34:53.729Z,18.10
2018-05-21T08:37:22.036Z,18.20
2018-05-21T08:39:50.403Z,18.40
2018-05-21T08:42:18.717Z,18.50
2018-05-21T08:44:47.767Z,18.60
2018-05-21T08:47:16.076Z,18.60
2018-05-21T08:49:44.390Z,18.60
2018-05-21T08:52:12.730Z,18.60
2018-05-21T08:54:41.009Z,18.60
2018-05-21T08:57:09.349Z,18.70
2018-05-21T08:59:37.629Z,18.80
2018-05-21T09:02:05.939Z,18.90
2018-05-21T09:04:34.220Z,19.00
2018-05-21T09:07:02.553Z,19.20
2018-05-21T09:09:30.829Z,19.20
2018-05-21T09:11:59.140Z,19.30
2018-05-21T09:14:27.423Z,19.40
2018-05-21T09:16:55.737Z,19.50
2018-05-21T09:19:24.021Z,19.60
2018-05-21T09:21:52.344Z,19.60
2018-05-21T09:24:20.659Z,19.70
2018-05-21T09:26:49.734Z,19.90
2018-05-21T09:29:18.016Z,19.90
2018-05-21T09:31:47.090Z,20.00
2018-05-21T09:34:15.389Z,20.00
2018-05-21T09:36:44.469Z,20.10
2018-05-21T09:39:12.762Z,20.10
2018-05-21T09:41:41.075Z,20.20
2018-05-21T09:44:09.382Z,20.30
2018-05-21T09:46:37.703Z,20.40
2018-05-21T09:49:06.762Z,20.50
2018-05-21T09:51:35.089Z,20.50
2018-05-21T09:54:03.376Z,20.50
2018-05-21T09:56:31.660Z,20.50
2018-05-21T09:58:59.982Z,20.50
2018-05-21T10:01:28.300Z,20.50
2018-05-21T10:03:56.640Z,20.50
2018-05-21T10:06:24.929Z,20.60
2018-05-21T10:08:54.013Z,20.50
2018-05-21T10:11:23.073Z,20.40
2018-05-21T10:13:51.408Z,20.40
2018-05-21T10:16:20.458Z,20.70
2018-05-21T10:18:48.780Z,20.70
2018-05-21T10:21:17.835Z,20.80
2018-05-21T10:23:46.148Z,20.80
2018-05-21T10:26:15.204Z,21.00
2018-05-21T10:28:43.520Z,21.00
2018-05-21T10:31:12.574Z,21.10
2018-05-21T10:33:41.652Z,21.20
2018-05-21T10:36:09.941Z,21.20
2018-05-21T10:38:38.257Z,21.30
2018-05-21T10:41:06.541Z,21.30
2018-05-21T10:43:35.641Z,21.40
2018-05-21T10:46:04.694Z,21.40
2018-05-21T10:48:33.013Z,21.30
2018-05-21T10:51:02.072Z,21.40
2018-05-21T10:53:30.387Z,21.40
2018-05-21T10:55:59.440Z,21.50
2018-05-21T10:58:27.760Z,21.50
2018-05-21T11:00:56.072Z,21.60
2018-05-21T11:03:24.440Z,21.70
2018-05-21T11:05:52.737Z,21.70
2018-05-21T11:08:21.059Z,21.70
2018-05-21T11:10:49.363Z,21.70
2018-05-21T11:13:17.720Z,21.70
2018-05-21T11:15:46.793Z,21.70
2018-05-21T11:18:15.109Z,21.70
2018-05-21T11:20:44.169Z,22.00
2018-05-21T11:23:12.484Z,21.90
2018-05-21T11:25:40.786Z,22.00
2018-05-21T11:28:09.105Z,22.00
2018-05-21T11:30:37.388Z,22.10
2018-05-21T11:33:05.709Z,22.10
2018-05-21T11:35:33.997Z,22.20
2018-05-21T11:38:02.304Z,22.20
2018-05-21T11:40:30.631Z,22.30
2018-05-21T11:42:58.911Z,22.40
2018-05-21T11:45:27.231Z,22.30
2018-05-21T11:47:55.517Z,22.30
2018-05-21T11:50:23.830Z,22.40
2018-05-21T11:52:52.880Z,22.50
2018-05-21T11:55:21.203Z,22.40
2018-05-21T11:57:49.484Z,22.50
2018-05-21T12:00:17.804Z,22.60
2018-05-21T12:02:46.185Z,22.60
2018-05-21T12:05:14.434Z,22.60
2018-05-21T12:07:42.740Z,22.80
2018-05-21T12:10:11.071Z,22.70
2018-05-21T12:12:39.364Z,22.60
2018-05-21T12:15:07.672Z,22.70
2018-05-21T12:17:35.968Z,22.80
2018-05-21T12:20:04.293Z,22.80
2018-05-21T12:22:32.580Z,22.80
2018-05-21T12:25:00.892Z,22.80
2018-05-21T12:27:29.195Z,22.90
2018-05-21T12:29:58.271Z,22.90
2018-05-21T12:32:26.560Z,22.80
2018-05-21T12:34:54.888Z,22.90
2018-05-21T12:37:23.189Z,23.10
2018-05-21T12:39:51.508Z,23.10
2018-05-21T12:42:19.802Z,23.20
2018-05-21T12:44:48.125Z,23.20
2018-05-21T12:47:16.409Z,23.20
2018-05-21T12:49:44.728Z,23.20
2018-05-21T12:52:13.004Z,23.20
2018-05-21T12:54:41.343Z,23.20
2018-05-21T12:57:09.637Z,23.30
2018-05-21T12:59:37.949Z,23.30
2018-05-21T13:02:06.303Z,23.30
2018-05-21T13:04:35.388Z,23.30
2018-05-21T13:07:03.680Z,23.30
2018-05-21T13:09:31.984Z,23.40
2018-05-21T13:12:00.268Z,23.50
2018-05-21T13:14:28.596Z,23.60
2018-05-21T13:16:56.888Z,23.60
2018-05-21T13:19:25.976Z,23.80
2018-05-21T13:21:55.034Z,23.90
2018-05-21T13:24:23.449Z,23.80
2018-05-21T13:26:51.660Z,24.00
2018-05-21T13:29:20.040Z,23.90
2018-05-21T13:31:48.277Z,23.90
2018-05-21T13:34:17.343Z,23.90
2018-05-21T13:36:45.633Z,23.90
2018-05-21T13:39:13.912Z,23.90
2018-05-21T13:41:42.216Z,24.10
2018-05-21T13:44:11.265Z,24.60
2018-05-21T13:46:39.578Z,24.60
2018-05-21T13:49:07.856Z,24.70
2018-05-21T13:51:36.941Z,24.80
2018-05-21T13:54:05.228Z,24.80
2018-05-21T13:56:34.320Z,24.90
2018-05-21T13:59:03.388Z,25.00
2018-05-21T14:01:31.717Z,25.00
2018-05-21T14:04:00.001Z,25.10
2018-05-21T14:06:28.337Z,25.40
2018-05-21T14:08:56.628Z,25.50
2018-05-21T14:11:25.704Z,25.50
2018-05-21T14:13:53.994Z,25.40
2018-05-21T14:16:22.313Z,25.40
2018-05-21T14:18:50.629Z,25.40
2018-05-21T14:21:18.940Z,25.40
2018-05-21T14:23:47.998Z,25.40
2018-05-21T14:26:16.312Z,25.30
2018-05-21T14:28:45.360Z,25.70
2018-05-21T14:31:13.687Z,25.70
2018-05-21T14:33:42.742Z,25.90
2018-05-21T14:36:11.055Z,25.90
2018-05-21T14:38:40.109Z,25.70
2018-05-21T14:41:08.425Z,25.70
2018-05-21T14:43:37.481Z,25.70
2018-05-21T14:46:05.798Z,25.70
2018-05-21T14:48:34.100Z,25.90
2018-05-21T14:51:02.412Z,26.20
2018-05-21T14:53:30.741Z,26.30
2018-05-21T14:55:59.064Z,26.50
2018-05-21T14:58:27.339Z,26.50
2018-05-21T15:00:55.657Z,26.50
2018-05-21T15:03:23.945Z,26.50
2018-05-21T15:05:53.021Z,26.40
2018-05-21T15:08:21.313Z,26.40
2018-05-21T15:10:50.387Z,26.30
2018-05-21T15:13:18.676Z,26.30
2018-05-21T15:15:46.961Z,26.20
2018-05-21T15:18:16.055Z,26.00
2018-05-21T15:20:45.107Z,25.80
2018-05-21T15:23:13.443Z,25.70
2018-05-21T15:25:41.728Z,25.40
2018-05-21T15:28:10.037Z,25.20
2018-05-21T15:30:38.324Z,25.00
2018-05-21T15:33:06.664Z,24.90
2018-05-21T15:35:34.950Z,24.80
2018-05-21T15:38:03.263Z,24.80
2018-05-21T15:40:31.565Z,24.80
2018-05-21T15:43:00.653Z,24.60
2018-05-21T15:45:28.932Z,24.60
2018-05-21T15:47:57.244Z,24.60
2018-05-21T15:50:25.544Z,24.80
2018-05-21T15:52:53.855Z,24.90
2018-05-21T15:55:22.133Z,25.20
2018-05-21T15:57:50.457Z,25.40
2018-05-21T16:00:18.784Z,25.60
2018-05-21T16:02:47.116Z,25.50
2018-05-21T16:05:15.408Z,25.50
2018-05-21T16:07:43.715Z,25.50
2018-05-21T16:10:12.022Z,25.60
2018-05-21T16:12:41.113Z,26.00
2018-05-21T16:15:10.179Z,26.10
2018-05-21T16:17:38.510Z,26.10
2018-05-21T16:20:06.793Z,26.20
2018-05-21T16:22:35.107Z,26.30
2018-05-21T16:25:03.398Z,26.60
2018-05-21T16:27:31.707Z,26.90
2018-05-21T16:30:00.761Z,27.20
2018-05-21T16:32:29.063Z,27.20
2018-05-21T16:34:58.129Z,27.30
2018-05-21T16:37:26.438Z,27.30
2018-05-21T16:39:55.487Z,27.40
2018-05-21T16:42:23.799Z,27.50
2018-05-21T16:44:52.067Z,27.60
2018-05-21T16:47:20.400Z,27.60
2018-05-21T16:49:48.691Z,27.60
2018-05-21T16:52:17.776Z,27.60
2018-05-21T16:54:46.068Z,27.60
2018-05-21T16:57:14.385Z,27.60
2018-05-21T16:59:42.669Z,27.50
2018-05-21T17:02:11.712Z,27.40
2018-05-21T17:04:40.036Z,27.30
2018-05-21T17:07:09.202Z,27.20
2018-05-21T17:09:38.229Z,27.20
2018-05-21T17:12:07.300Z,27.30
2018-05-21T17:14:35.629Z,27.30
2018-05-21T17:17:03.935Z,27.40
2018-05-21T17:19:33.008Z,27.50
2018-05-21T17:22:01.288Z,27.40
2018-05-21T17:24:29.633Z,27.30
2018-05-21T17:26:58.688Z,27.00
2018-05-21T17:29:27.067Z,27.00
2018-05-21T17:31:55.326Z,26.80
2018-05-21T17:34:23.632Z,26.40
2018-05-21T17:36:51.922Z,26.20
2018-05-21T17:39:20.235Z,26.00
2018-05-21T17:41:48.534Z,25.80
2018-05-21T17:44:16.866Z,25.70
2018-05-21T17:46:45.914Z,25.40
2018-05-21T17:49:14.232Z,25.30
2018-05-21T17:51:42.571Z,25.20
2018-05-21T17:54:10.849Z,25.10
2018-05-21T17:56:39.156Z,25.00
2018-05-21T17:59:07.485Z,24.90
2018-05-21T18:01:35.757Z,24.80
2018-05-21T18:04:04.079Z,24.70
2018-05-21T18:06:32.359Z,24.70
2018-05-21T18:09:00.661Z,24.60
2018-05-21T18:11:29.715Z,24.50
2018-05-21T18:13:58.028Z,24.50
2018-05-21T18:16:27.084Z,24.40
2018-05-21T18:18:55.399Z,24.30
2018-05-21T18:21:23.682Z,24.30
2018-05-21T18:23:52.769Z,24.10
2018-05-21T18:26:21.060Z,24.10
2018-05-21T18:28:50.132Z,23.90
2018-05-21T18:31:18.418Z,23.90
2018-05-21T18:33:46.748Z,23.90
2018-05-21T18:36:15.033Z,23.70
2018-05-21T18:38:43.348Z,23.60
2018-05-21T18:41:11.639Z,23.40
2018-05-21T18:43:40.715Z,23.20
2018-05-21T18:46:09.910Z,23.10
2018-05-21T18:48:38.213Z,23.00
2018-05-21T18:51:07.288Z,22.60
2018-05-21T18:53:35.584Z,22.50
2018-05-21T18:56:04.656Z,22.20
2018-05-21T18:58:32.940Z,22.20
2018-05-21T19:01:01.269Z,22.00
2018-05-21T19:03:29.557Z,21.80
2018-05-21T19:05:57.939Z,21.70
2018-05-21T19:08:26.944Z,21.40
2018-05-21T19:10:55.255Z,21.40
2018-05-21T19:13:24.301Z,21.40
2018-05-21T19:15:52.617Z,21.40
2018-05-21T19:18:20.905Z,21.40
2018-05-21T19:20:49.988Z,21.10
2018-05-21T19:23:18.272Z,21.10
2018-05-21T19:25:46.596Z,20.90
2018-05-21T19:28:14.882Z,20.80
2018-05-21T19:30:43.185Z,20.70
2018-05-21T19:33:11.473Z,20.60
2018-05-21T19:35:39.808Z,20.50
2018-05-21T19:38:08.116Z,20.40
2018-05-21T19:40:36.466Z,20.20
2018-05-21T19:43:04.755Z,20.10
2018-05-21T19:45:33.073Z,19.90
2018-05-21T19:48:02.135Z,19.70
2018-05-21T19:50:30.465Z,19.70
2018-05-21T19:52:58.751Z,19.60
2018-05-21T19:55:27.082Z,19.60
2018-05-21T19:57:55.356Z,19.50
2018-05-21T20:00:23.668Z,19.40
2018-05-21T20:02:51.952Z,19.20
2018-05-21T20:05:20.285Z,19.20
2018-05-21T20:07:48.571Z,19.20
2018-05-21T20:10:16.896Z,19.20
2018-05-21T20:12:45.175Z,19.20
2018-05-21T20:15:13.484Z,19.10
2018-05-21T20:17:41.767Z,19.10
2018-05-21T20:20:10.092Z,19.20
2018-05-21T20:22:38.384Z,19.10
2018-05-21T20:25:06.726Z,19.00
2018-05-21T20:27:35.057Z,18.90
2018-05-21T20:30:03.360Z,18.80
2018-05-21T20:32:31.667Z,18.70
2018-05-21T20:35:00.725Z,18.60
2018-05-21T20:37:29.036Z,18.60
2018-05-21T20:39:58.087Z,18.50
2018-05-21T20:42:26.405Z,18.50
2018-05-21T20:44:55.448Z,18.50
2018-05-21T20:47:23.757Z,18.50
2018-05-21T20:49:52.056Z,18.50
2018-05-21T20:52:21.133Z,18.60
2018-05-21T20:54:49.419Z,18.60
2018-05-21T20:57:17.759Z,18.50
2018-05-21T20:59:46.064Z,18.50
2018-05-21T21:02:14.375Z,18.50
2018-05-21T21:04:42.677Z,18.30
2018-05-21T21:07:10.984Z,18.00
2018-05-21T21:09:39.272Z,17.80
2018-05-21T21:12:07.600Z,17.60
2018-05-21T21:14:35.892Z,17.60
2018-05-21T21:17:04.240Z,17.70
2018-05-21T21:19:32.537Z,17.80
2018-05-21T21:22:00.857Z,17.70
2018-05-21T21:24:29.133Z,17.80
2018-05-21T21:26:57.448Z,17.80
2018-05-21T21:29:26.523Z,17.70
2018-05-21T21:31:54.841Z,17.70
2018-05-21T21:34:23.128Z,17.80
2018-05-21T21:36:51.436Z,17.70
2018-05-21T21:39:19.732Z,17.60
2018-05-21T21:41:48.045Z,17.50
2018-05-21T21:44:16.338Z,17.50
2018-05-21T21:46:44.660Z,17.40
2018-05-21T21:49:13.737Z,17.40
2018-05-21T21:51:42.072Z,17.30
2018-05-21T21:54:10.361Z,17.40
2018-05-21T21:56:38.680Z,17.30
2018-05-21T21:59:06.970Z,17.30
2018-05-21T22:01:35.293Z,17.30
2018-05-21T22:04:03.569Z,17.20
2018-05-21T22:06:31.885Z,17.20
2018-05-21T22:09:00.180Z,17.10
2018-05-21T22:11:28.497Z,17.00
2018-05-21T22:13:56.788Z,17.00
2018-05-21T22:16:25.116Z,17.00
2018-05-21T22:18:54.177Z,17.00
2018-05-21T22:21:22.499Z,17.00
2018-05-21T22:23:51.571Z,16.90
2018-05-21T22:26:19.851Z,16.80
2018-05-21T22:28:48.161Z,16.70
2018-05-21T22:31:16.457Z,16.60
2018-05-21T22:33:44.768Z,16.30
2018-05-21T22:36:13.069Z,16.20
2018-05-21T22:38:42.145Z,16.30
2018-05-21T22:41:10.451Z,16.30
2018-05-21T22:43:38.780Z,16.30
2018-05-21T22:46:07.060Z,16.40
2018-05-21T22:48:35.396Z,16.50
2018-05-21T22:51:03.677Z,16.50
2018-05-21T22:53:32.015Z,16.60
2018-05-21T22:56:00.304Z,16.60
2018-05-21T22:58:28.608Z,16.60
2018-05-21T23:00:56.912Z,16.70
2018-05-21T23:03:25.215Z,16.70
2018-05-21T23:05:53.495Z,16.70
2018-05-21T23:08:21.807Z,16.70
2018-05-21T23:10:50.100Z,16.70
2018-05-21T23:13:18.423Z,16.70
2018-05-21T23:15:46.700Z,16.70
2018-05-21T23:18:15.017Z,16.70
2018-05-21T23:20:43.301Z,16.70
2018-05-21T23:23:11.619Z,16.70
2018-05-21T23:25:39.896Z,16.60
2018-05-21T23:28:08.220Z,16.50
2018-05-21T23:30:37.276Z,16.30
2018-05-21T23:33:05.577Z,16.30
2018-05-21T23:35:33.861Z,16.30
2018-05-21T23:38:02.923Z,16.30
2018-05-21T23:40:31.218Z,16.30
2018-05-21T23:42:59.537Z,16.30
2018-05-21T23:45:27.815Z,16.30
2018-05-21T23:47:56.124Z,16.30
2018-05-21T23:50:24.405Z,16.30
2018-05-21T23:52:52.716Z,16.30
2018-05-21T23:55:21.763Z,16.40
2018-05-21T23:57:50.074Z,16.40
